createdAt,value
2018-08-14T00:00:06.921Z,17.78
2018-08-14T00:01:06.902Z,17.82
2018-08-14T00:02:06.882Z,17.82
2018-08-14T00:03:06.861Z,17.78
2018-08-14T00:04:06.842Z,17.77
2018-08-14T00:05:06.822Z,17.77
2018-08-14T00:06:06.803Z,17.84
2018-08-14T00:07:06.782Z,17.77
2018-08-14T00:08:06.762Z,17.78
2018-08-14T00:09:06.743Z,17.90
2018-08-14T00:10:06.723Z,17.87
2018-08-14T00:11:06.701Z,17.81
2018-08-14T00:12:06.687Z,17.84
2018-08-14T00:13:06.666Z,17.81
2018-08-14T00:14:06.641Z,17.75
2018-08-14T00:15:06.621Z,17.77
2018-08-14T00:16:06.603Z,17.79
2018-08-14T00:17:06.583Z,17.78
2018-08-14T00:18:06.563Z,17.89
2018-08-14T00:19:06.543Z,17.81
2018-08-14T00:20:06.523Z,17.82
2018-08-14T00:21:06.504Z,17.81
2018-08-14T00:22:06.483Z,17.81
2018-08-14T00:23:06.462Z,17.82
2018-08-14T00:24:06.443Z,17.81
2018-08-14T00:25:06.423Z,17.82
2018-08-14T00:26:06.403Z,17.75
2018-08-14T00:27:06.383Z,17.74
2018-08-14T00:28:06.362Z,17.75
2018-08-14T00:29:06.342Z,17.72
2018-08-14T00:30:06.322Z,17.81
2018-08-14T00:31:06.302Z,17.68
2018-08-14T00:32:06.282Z,17.68
2018-08-14T00:33:06.263Z,17.75
2018-08-14T00:34:06.243Z,17.72
2018-08-14T00:35:06.224Z,17.79
2018-08-14T00:36:06.202Z,17.74
2018-08-14T00:37:06.182Z,17.68
2018-08-14T00:38:06.161Z,17.72
2018-08-14T00:39:06.142Z,17.62
2018-08-14T00:40:06.122Z,17.55
2018-08-14T00:41:06.101Z,17.54
2018-08-14T00:42:06.084Z,17.55
2018-08-14T00:43:06.061Z,17.55
2018-08-14T00:44:06.041Z,17.54
2018-08-14T00:45:06.021Z,17.58
2018-08-14T00:46:06.000Z,17.59
2018-08-14T00:47:05.980Z,17.48
2018-08-14T00:48:05.962Z,17.51
2018-08-14T00:49:05.939Z,17.49
2018-08-14T00:50:05.920Z,17.43
2018-08-14T00:51:05.900Z,17.48
2018-08-14T00:52:05.879Z,17.44
2018-08-14T00:53:05.858Z,17.54
2018-08-14T00:54:05.838Z,17.43
2018-08-14T00:55:05.818Z,17.44
2018-08-14T00:56:05.806Z,17.36
2018-08-14T00:57:05.777Z,17.48
2018-08-14T00:58:05.756Z,17.41
2018-08-14T00:59:05.738Z,17.33
2018-08-14T01:00:05.717Z,17.28
2018-08-14T01:01:05.698Z,17.28
2018-08-14T01:02:05.677Z,17.15
2018-08-14T01:03:05.655Z,17.31
2018-08-14T01:04:05.635Z,17.30
2018-08-14T01:05:05.615Z,17.31
2018-08-14T01:06:05.594Z,17.30
2018-08-14T01:07:05.574Z,17.28
2018-08-14T01:08:05.554Z,17.28
2018-08-14T01:09:05.539Z,17.22
2018-08-14T01:10:05.512Z,17.23
2018-08-14T01:11:05.493Z,17.15
2018-08-14T01:12:05.474Z,17.08
2018-08-14T01:13:05.452Z,17.08
2018-08-14T01:14:05.433Z,17.00
2018-08-14T01:15:05.411Z,16.97
2018-08-14T01:16:05.390Z,16.94
2018-08-14T01:17:05.371Z,16.91
2018-08-14T01:18:05.348Z,16.89
2018-08-14T01:19:05.329Z,16.88
2018-08-14T01:20:05.308Z,16.85
2018-08-14T01:21:05.289Z,16.89
2018-08-14T01:22:05.267Z,16.85
2018-08-14T01:23:05.247Z,16.91
2018-08-14T01:24:05.226Z,16.91
2018-08-14T01:25:05.206Z,16.86
2018-08-14T01:26:05.188Z,16.89
2018-08-14T01:27:05.165Z,16.79
2018-08-14T01:28:05.148Z,16.76
2018-08-14T01:29:05.123Z,16.70
2018-08-14T01:30:05.105Z,16.63
2018-08-14T01:31:05.083Z,16.66
2018-08-14T01:32:05.062Z,16.61
2018-08-14T01:33:05.042Z,16.64
2018-08-14T01:34:05.022Z,16.53
2018-08-14T01:35:05.000Z,16.58
2018-08-14T01:36:04.979Z,16.64
2018-08-14T01:37:04.960Z,16.61
2018-08-14T01:38:04.939Z,16.58
2018-08-14T01:39:04.918Z,16.66
2018-08-14T01:40:04.897Z,16.58
2018-08-14T01:41:04.877Z,16.53
2018-08-14T01:42:04.855Z,16.53
2018-08-14T01:43:04.836Z,16.57
2018-08-14T01:44:04.820Z,16.57
2018-08-14T01:45:04.796Z,16.52
2018-08-14T01:46:04.774Z,16.53
2018-08-14T01:47:04.754Z,16.49
2018-08-14T01:48:04.735Z,16.52
2018-08-14T01:49:04.713Z,16.46
2018-08-14T01:50:04.691Z,16.42
2018-08-14T01:51:04.674Z,16.42
2018-08-14T01:52:04.650Z,16.46
2018-08-14T01:53:04.632Z,16.43
2018-08-14T01:54:04.608Z,16.39
2018-08-14T01:55:04.590Z,16.34
2018-08-14T01:56:04.568Z,16.39
2018-08-14T01:57:04.551Z,16.34
2018-08-14T01:58:04.526Z,16.35
2018-08-14T01:59:04.505Z,16.39
2018-08-14T02:00:04.486Z,16.28
2018-08-14T02:01:04.466Z,16.35
2018-08-14T02:02:04.443Z,16.27
2018-08-14T02:03:04.424Z,16.23
2018-08-14T02:04:04.404Z,16.09
2018-08-14T02:05:04.384Z,16.15
2018-08-14T02:06:04.361Z,16.11
2018-08-14T02:07:04.341Z,16.08
2018-08-14T02:08:04.320Z,16.04
2018-08-14T02:09:04.298Z,16.01
2018-08-14T02:10:04.279Z,16.00
2018-08-14T02:11:04.258Z,15.94
2018-08-14T02:12:04.237Z,15.75
2018-08-14T02:13:04.217Z,15.83
2018-08-14T02:14:04.197Z,15.82
2018-08-14T02:15:04.175Z,15.76
2018-08-14T02:16:04.155Z,15.76
2018-08-14T02:17:04.137Z,15.76
2018-08-14T02:18:04.114Z,15.75
2018-08-14T02:19:04.091Z,15.78
2018-08-14T02:20:04.071Z,15.74
2018-08-14T02:21:04.051Z,15.82
2018-08-14T02:22:04.028Z,15.74
2018-08-14T02:23:04.009Z,15.68
2018-08-14T02:24:03.987Z,15.72
2018-08-14T02:25:03.968Z,15.82
2018-08-14T02:26:03.946Z,15.76
2018-08-14T02:27:03.924Z,15.83
2018-08-14T02:28:03.903Z,15.76
2018-08-14T02:29:03.883Z,15.74
2018-08-14T02:30:03.863Z,15.75
2018-08-14T02:31:03.842Z,15.68
2018-08-14T02:32:03.821Z,15.76
2018-08-14T02:33:03.799Z,15.80
2018-08-14T02:34:03.779Z,15.76
2018-08-14T02:35:03.756Z,15.72
2018-08-14T02:36:03.737Z,15.74
2018-08-14T02:37:03.715Z,15.71
2018-08-14T02:38:03.694Z,15.82
2018-08-14T02:39:03.674Z,15.80
2018-08-14T02:40:03.652Z,15.68
2018-08-14T02:41:03.630Z,15.78
2018-08-14T02:42:03.609Z,15.75
2018-08-14T02:43:03.589Z,15.87
2018-08-14T02:44:03.567Z,15.76
2018-08-14T02:45:03.547Z,15.82
2018-08-14T02:46:03.524Z,15.75
2018-08-14T02:47:03.506Z,15.74
2018-08-14T02:48:03.547Z,15.83
2018-08-14T02:49:03.462Z,15.78
2018-08-14T02:50:03.440Z,15.80
2018-08-14T02:51:03.420Z,15.82
2018-08-14T02:52:03.397Z,15.76
2018-08-14T02:53:03.379Z,15.90
2018-08-14T02:54:03.358Z,15.83
2018-08-14T02:55:03.335Z,15.74
2018-08-14T02:56:03.313Z,15.87
2018-08-14T02:57:03.292Z,15.90
2018-08-14T02:58:03.271Z,15.82
2018-08-14T02:59:03.249Z,15.75
2018-08-14T03:00:03.228Z,15.75
2018-08-14T03:01:03.208Z,15.89
2018-08-14T03:02:03.185Z,15.94
2018-08-14T03:03:03.165Z,15.89
2018-08-14T03:04:03.144Z,15.86
2018-08-14T03:05:03.121Z,15.93
2018-08-14T03:06:03.100Z,15.86
2018-08-14T03:07:03.081Z,15.90
2018-08-14T03:08:03.057Z,15.83
2018-08-14T03:09:03.037Z,15.80
2018-08-14T03:10:03.016Z,15.87
2018-08-14T03:11:02.997Z,15.90
2018-08-14T03:12:02.973Z,15.87
2018-08-14T03:13:02.952Z,15.87
2018-08-14T03:14:02.930Z,15.93
2018-08-14T03:15:02.911Z,15.89
2018-08-14T03:16:02.888Z,15.87
2018-08-14T03:17:02.867Z,15.97
2018-08-14T03:18:02.846Z,15.97
2018-08-14T03:19:02.824Z,15.96
2018-08-14T03:20:02.804Z,16.04
2018-08-14T03:21:02.783Z,15.90
2018-08-14T03:22:02.762Z,15.89
2018-08-14T03:23:02.740Z,15.86
2018-08-14T03:24:02.719Z,15.92
2018-08-14T03:25:02.702Z,15.92
2018-08-14T03:26:02.678Z,15.90
2018-08-14T03:27:02.655Z,15.92
2018-08-14T03:28:02.633Z,15.93
2018-08-14T03:29:02.612Z,15.94
2018-08-14T03:30:02.590Z,15.87
2018-08-14T03:31:02.571Z,15.90
2018-08-14T03:32:02.549Z,15.97
2018-08-14T03:33:02.526Z,16.00
2018-08-14T03:34:02.505Z,15.93
2018-08-14T03:35:02.485Z,16.02
2018-08-14T03:36:02.463Z,16.01
2018-08-14T03:37:02.442Z,15.94
2018-08-14T03:38:02.419Z,15.97
2018-08-14T03:39:02.398Z,15.94
2018-08-14T03:40:02.378Z,15.92
2018-08-14T03:41:02.356Z,15.87
2018-08-14T03:42:02.335Z,15.89
2018-08-14T03:43:02.316Z,15.87
2018-08-14T03:44:02.294Z,15.89
2018-08-14T03:45:02.273Z,15.87
2018-08-14T03:46:02.250Z,15.80
2018-08-14T03:47:02.228Z,15.80
2018-08-14T03:48:02.208Z,15.83
2018-08-14T03:49:02.187Z,15.82
2018-08-14T03:50:02.168Z,15.84
2018-08-14T03:51:02.149Z,15.82
2018-08-14T03:52:02.128Z,15.83
2018-08-14T03:53:02.101Z,15.83
2018-08-14T03:54:02.080Z,15.80
2018-08-14T03:55:02.060Z,15.84
2018-08-14T03:56:02.042Z,15.82
2018-08-14T03:57:02.019Z,15.83
2018-08-14T03:58:01.996Z,15.78
2018-08-14T03:59:01.974Z,15.76
2018-08-14T04:00:01.952Z,15.82
2018-08-14T04:01:01.931Z,15.75
2018-08-14T04:02:01.910Z,15.82
2018-08-14T04:03:01.888Z,15.78
2018-08-14T04:04:01.867Z,15.87
2018-08-14T04:05:01.857Z,15.76
2018-08-14T04:06:01.862Z,15.89
2018-08-14T04:07:01.803Z,15.86
2018-08-14T04:08:01.782Z,15.86
2018-08-14T04:09:01.760Z,15.82
2018-08-14T04:10:01.739Z,15.89
2018-08-14T04:11:01.717Z,15.92
2018-08-14T04:12:01.696Z,15.90
2018-08-14T04:13:01.676Z,15.75
2018-08-14T04:14:01.654Z,15.90
2018-08-14T04:15:01.634Z,15.92
2018-08-14T04:16:01.617Z,15.92
2018-08-14T04:17:01.591Z,16.01
2018-08-14T04:18:01.568Z,15.94
2018-08-14T04:19:01.550Z,16.08
2018-08-14T04:20:01.528Z,16.08
2018-08-14T04:21:01.506Z,16.07
2018-08-14T04:22:01.482Z,16.05
2018-08-14T04:23:01.462Z,16.07
2018-08-14T04:24:01.442Z,16.11
2018-08-14T04:25:01.419Z,16.11
2018-08-14T04:26:01.398Z,16.11
2018-08-14T04:27:01.379Z,16.05
2018-08-14T04:28:01.357Z,16.07
2018-08-14T04:29:01.336Z,16.08
2018-08-14T04:30:01.314Z,16.09
2018-08-14T04:31:01.291Z,16.04
2018-08-14T04:32:01.271Z,16.11
2018-08-14T04:33:01.249Z,16.12
2018-08-14T04:34:01.228Z,16.27
2018-08-14T04:35:01.208Z,16.30
2018-08-14T04:36:01.186Z,16.48
2018-08-14T04:37:01.165Z,16.48
2018-08-14T04:38:01.144Z,16.48
2018-08-14T04:39:01.123Z,16.49
2018-08-14T04:40:01.102Z,16.48
2018-08-14T04:41:01.086Z,16.58
2018-08-14T04:42:01.060Z,16.53
2018-08-14T04:43:01.042Z,16.58
2018-08-14T04:44:01.019Z,16.63
2018-08-14T04:45:01.001Z,16.60
2018-08-14T04:46:01.020Z,16.56
2018-08-14T04:47:00.956Z,16.53
2018-08-14T04:48:00.937Z,16.46
2018-08-14T04:49:00.914Z,16.56
2018-08-14T04:50:00.894Z,16.60
2018-08-14T04:51:00.873Z,16.53
2018-08-14T04:52:00.853Z,16.46
2018-08-14T04:53:00.832Z,16.61
2018-08-14T04:54:00.972Z,16.61
2018-08-14T04:55:00.789Z,16.60
2018-08-14T04:56:00.769Z,16.68
2018-08-14T04:57:00.749Z,16.63
2018-08-14T04:58:00.727Z,16.68
2018-08-14T04:59:00.707Z,16.79
2018-08-14T05:00:00.687Z,16.89
2018-08-14T05:01:00.666Z,16.88
2018-08-14T05:02:00.645Z,16.97
2018-08-14T05:03:00.623Z,17.01
2018-08-14T05:04:00.604Z,17.11
2018-08-14T05:05:00.582Z,17.19
2018-08-14T05:06:00.561Z,17.33
2018-08-14T05:07:00.541Z,17.46
2018-08-14T05:08:00.522Z,17.54
2018-08-14T05:09:00.582Z,17.55
2018-08-14T05:10:00.480Z,17.64
2018-08-14T05:11:00.458Z,17.84
2018-08-14T05:12:00.438Z,17.82
2018-08-14T05:13:00.420Z,17.84
2018-08-14T05:14:00.398Z,17.96
2018-08-14T05:15:00.378Z,18.03
2018-08-14T05:16:00.360Z,18.08
2018-08-14T05:17:00.340Z,17.95
2018-08-14T05:18:03.739Z,18.11
2018-08-14T05:19:00.297Z,18.10
2018-08-14T05:20:00.277Z,18.03
2018-08-14T05:21:00.258Z,18.11
2018-08-14T05:22:00.236Z,18.10
2018-08-14T05:23:00.219Z,18.23
2018-08-14T05:24:00.199Z,18.21
2018-08-14T05:25:00.178Z,18.44
2018-08-14T05:26:00.158Z,18.45
2018-08-14T05:27:00.138Z,18.52
2018-08-14T05:28:00.118Z,18.66
2018-08-14T05:29:00.099Z,18.80
2018-08-14T05:30:00.123Z,18.63
2018-08-14T05:31:00.065Z,18.66
2018-08-14T05:32:00.042Z,18.58
2018-08-14T05:33:00.023Z,18.51
2018-08-14T05:34:00.001Z,18.48
2018-08-14T05:34:59.982Z,18.30
2018-08-14T05:35:59.963Z,18.29
2018-08-14T05:36:59.948Z,18.32
2018-08-14T05:37:59.923Z,18.26
2018-08-14T05:38:59.909Z,18.21
2018-08-14T05:39:59.884Z,18.33
2018-08-14T05:40:59.865Z,18.27
2018-08-14T05:41:59.846Z,18.29
2018-08-14T05:42:59.827Z,18.27
2018-08-14T05:43:59.807Z,18.30
2018-08-14T05:44:59.788Z,18.27
2018-08-14T05:45:59.767Z,18.30
2018-08-14T05:46:59.748Z,18.36
2018-08-14T05:47:59.729Z,18.36
2018-08-14T05:48:59.716Z,18.42
2018-08-14T05:49:59.690Z,18.51
2018-08-14T05:50:59.670Z,18.60
2018-08-14T05:51:59.650Z,18.57
2018-08-14T05:52:59.697Z,18.66
2018-08-14T05:53:59.612Z,18.52
2018-08-14T05:54:59.593Z,18.60
2018-08-14T05:55:59.572Z,18.69
2018-08-14T05:56:59.554Z,18.73
2018-08-14T05:57:59.532Z,18.78
2018-08-14T05:58:59.514Z,19.04
2018-08-14T05:59:59.494Z,20.11
2018-08-14T06:00:59.476Z,20.59
2018-08-14T06:01:59.455Z,20.24
2018-08-14T06:02:59.437Z,20.33
2018-08-14T06:03:59.418Z,19.99
2018-08-14T06:04:59.403Z,19.94
2018-08-14T06:05:59.381Z,20.77
2018-08-14T06:06:59.360Z,21.56
2018-08-14T06:07:59.342Z,22.05
2018-08-14T06:08:59.324Z,22.39
2018-08-14T06:09:59.306Z,23.15
2018-08-14T06:10:59.286Z,23.04
2018-08-14T06:11:59.270Z,23.46
2018-08-14T06:12:59.253Z,22.79
2018-08-14T06:13:59.233Z,23.66
2018-08-14T06:14:59.218Z,22.85
2018-08-14T06:15:59.200Z,22.70
2018-08-14T06:16:59.286Z,22.37
2018-08-14T06:17:59.166Z,21.68
2018-08-14T06:18:59.151Z,21.42
2018-08-14T06:19:59.134Z,21.42
2018-08-14T06:20:59.120Z,21.12
2018-08-14T06:21:59.100Z,20.70
2018-08-14T06:22:59.084Z,20.48
2018-08-14T06:23:59.069Z,20.35
2018-08-14T06:24:59.073Z,20.18
2018-08-14T06:25:59.035Z,19.95
2018-08-14T06:26:59.018Z,19.59
2018-08-14T06:27:59.001Z,19.47
2018-08-14T06:28:58.985Z,19.23
2018-08-14T06:29:58.967Z,19.11
2018-08-14T06:30:58.949Z,19.06
2018-08-14T06:31:58.931Z,19.06
2018-08-14T06:32:58.912Z,19.18
2018-08-14T06:33:58.896Z,19.21
2018-08-14T06:34:58.879Z,19.21
2018-08-14T06:35:58.860Z,19.21
2018-08-14T06:36:58.843Z,19.21
2018-08-14T06:37:58.822Z,19.18
2018-08-14T06:38:58.834Z,19.31
2018-08-14T06:39:58.785Z,19.44
2018-08-14T06:40:58.769Z,19.55
2018-08-14T06:41:58.750Z,19.71
2018-08-14T06:42:58.744Z,19.83
2018-08-14T06:43:58.713Z,20.42
2018-08-14T06:44:58.695Z,21.25
2018-08-14T06:45:58.676Z,22.21
2018-08-14T06:46:58.660Z,22.95
2018-08-14T06:47:58.641Z,22.24
2018-08-14T06:48:58.629Z,22.43
2018-08-14T06:49:58.605Z,22.76
2018-08-14T06:50:58.589Z,22.90
2018-08-14T06:51:58.572Z,22.79
2018-08-14T06:52:58.560Z,22.62
2018-08-14T06:53:58.537Z,22.68
2018-08-14T06:54:58.522Z,22.64
2018-08-14T06:55:58.506Z,22.54
2018-08-14T06:56:58.489Z,21.90
2018-08-14T06:57:58.472Z,21.83
2018-08-14T06:58:58.456Z,21.40
2018-08-14T06:59:58.440Z,21.21
2018-08-14T07:00:58.424Z,21.24
2018-08-14T07:01:58.407Z,21.44
2018-08-14T07:02:58.390Z,21.82
2018-08-14T07:03:58.378Z,21.69
2018-08-14T07:04:58.360Z,21.68
2018-08-14T07:05:58.340Z,21.69
2018-08-14T07:06:58.328Z,21.82
2018-08-14T07:07:58.308Z,22.00
2018-08-14T07:08:58.291Z,21.96
2018-08-14T07:09:58.274Z,21.56
2018-08-14T07:10:58.258Z,21.56
2018-08-14T07:11:58.241Z,21.37
2018-08-14T07:12:58.225Z,22.05
2018-08-14T07:13:58.209Z,22.58
2018-08-14T07:14:58.193Z,22.36
2018-08-14T07:15:58.176Z,22.33
2018-08-14T07:16:58.161Z,21.96
2018-08-14T07:17:58.143Z,21.68
2018-08-14T07:18:58.126Z,21.56
2018-08-14T07:19:58.110Z,21.49
2018-08-14T07:20:58.097Z,21.29
2018-08-14T07:21:58.079Z,21.31
2018-08-14T07:22:58.060Z,21.49
2018-08-14T07:23:58.044Z,21.75
2018-08-14T07:24:58.028Z,22.36
2018-08-14T07:25:58.014Z,22.77
2018-08-14T07:26:57.995Z,22.68
2018-08-14T07:27:57.978Z,22.25
2018-08-14T07:28:57.962Z,22.30
2018-08-14T07:29:57.944Z,23.28
2018-08-14T07:30:57.929Z,24.18
2018-08-14T07:31:57.913Z,25.08
2018-08-14T07:32:57.899Z,24.21
2018-08-14T07:33:57.882Z,24.06
2018-08-14T07:34:57.865Z,23.93
2018-08-14T07:35:57.850Z,24.12
2018-08-14T07:36:57.836Z,23.80
2018-08-14T07:37:57.819Z,23.75
2018-08-14T07:38:57.804Z,24.20
2018-08-14T07:39:57.788Z,24.02
2018-08-14T07:40:57.778Z,23.39
2018-08-14T07:41:57.762Z,22.72
2018-08-14T07:42:57.743Z,22.68
2018-08-14T07:43:57.729Z,22.98
2018-08-14T07:44:57.714Z,23.20
2018-08-14T07:45:57.718Z,23.28
2018-08-14T07:46:57.682Z,23.25
2018-08-14T07:47:57.668Z,23.15
2018-08-14T07:48:57.654Z,24.22
2018-08-14T07:49:57.666Z,23.88
2018-08-14T07:50:57.623Z,23.90
2018-08-14T07:51:57.609Z,23.60
2018-08-14T07:52:57.594Z,23.78
2018-08-14T07:53:57.578Z,23.40
2018-08-14T07:54:57.561Z,23.27
2018-08-14T07:55:57.553Z,23.09
2018-08-14T07:56:57.531Z,22.77
2018-08-14T07:57:57.566Z,22.86
2018-08-14T07:58:57.502Z,22.90
2018-08-14T07:59:57.486Z,22.40
2018-08-14T08:00:57.472Z,22.09
2018-08-14T08:01:57.456Z,21.71
2018-08-14T08:02:57.439Z,21.54
2018-08-14T08:03:57.423Z,21.47
2018-08-14T08:04:57.407Z,21.53
2018-08-14T08:05:57.396Z,21.56
2018-08-14T08:06:57.376Z,21.46
2018-08-14T08:07:57.361Z,21.56
2018-08-14T08:08:57.345Z,21.71
2018-08-14T08:09:57.328Z,21.79
2018-08-14T08:10:57.312Z,21.90
2018-08-14T08:11:57.347Z,22.17
2018-08-14T08:12:57.282Z,22.21
2018-08-14T08:13:57.263Z,22.27
2018-08-14T08:14:57.248Z,22.22
2018-08-14T08:15:57.231Z,22.03
2018-08-14T08:16:57.216Z,21.99
2018-08-14T08:17:57.199Z,21.86
2018-08-14T08:18:57.183Z,21.80
2018-08-14T08:19:57.167Z,21.38
2018-08-14T08:20:57.153Z,21.28
2018-08-14T08:21:57.134Z,21.07
2018-08-14T08:22:57.121Z,21.19
2018-08-14T08:23:57.103Z,21.58
2018-08-14T08:24:57.085Z,22.79
2018-08-14T08:25:57.071Z,23.13
2018-08-14T08:26:57.089Z,22.95
2018-08-14T08:27:57.036Z,23.12
2018-08-14T08:28:57.021Z,22.98
2018-08-14T08:29:57.003Z,22.86
2018-08-14T08:30:56.988Z,22.54
2018-08-14T08:31:56.972Z,22.37
2018-08-14T08:32:56.956Z,22.33
2018-08-14T08:33:56.938Z,22.21
2018-08-14T08:34:56.923Z,22.30
2018-08-14T08:35:56.907Z,22.24
2018-08-14T08:36:56.892Z,22.35
2018-08-14T08:37:56.875Z,22.55
2018-08-14T08:38:56.861Z,22.46
2018-08-14T08:39:56.848Z,22.33
2018-08-14T08:40:56.830Z,22.07
2018-08-14T08:41:56.853Z,21.75
2018-08-14T08:42:56.793Z,21.44
2018-08-14T08:43:56.777Z,21.21
2018-08-14T08:44:56.761Z,21.07
2018-08-14T08:45:56.744Z,21.01
2018-08-14T08:46:56.729Z,20.95
2018-08-14T08:47:56.710Z,20.98
2018-08-14T08:48:56.712Z,21.01
2018-08-14T08:49:56.676Z,21.43
2018-08-14T08:50:56.667Z,21.91
2018-08-14T08:51:56.643Z,22.30
2018-08-14T08:52:56.626Z,22.70
2018-08-14T08:53:56.612Z,23.00
2018-08-14T08:54:56.592Z,23.43
2018-08-14T08:55:56.576Z,23.83
2018-08-14T08:56:56.558Z,24.16
2018-08-14T08:57:56.546Z,24.52
2018-08-14T08:58:56.525Z,24.83
2018-08-14T08:59:56.509Z,24.50
2018-08-14T09:00:56.495Z,24.39
2018-08-14T09:01:56.477Z,23.55
2018-08-14T09:02:56.460Z,22.55
2018-08-14T09:03:56.533Z,22.18
2018-08-14T09:04:56.430Z,21.94
2018-08-14T09:05:56.438Z,21.72
2018-08-14T09:06:56.399Z,21.52
2018-08-14T09:07:56.392Z,21.56
2018-08-14T09:08:56.369Z,21.58
2018-08-14T09:09:56.351Z,21.65
2018-08-14T09:10:56.334Z,21.54
2018-08-14T09:11:56.319Z,21.50
2018-08-14T09:12:56.303Z,21.44
2018-08-14T09:13:56.286Z,21.53
2018-08-14T09:14:56.269Z,21.68
2018-08-14T09:15:56.253Z,21.84
2018-08-14T09:16:56.237Z,21.86
2018-08-14T09:17:56.221Z,22.05
2018-08-14T09:18:56.204Z,22.25
2018-08-14T09:19:56.187Z,22.31
2018-08-14T09:20:56.170Z,22.43
2018-08-14T09:21:56.152Z,22.64
2018-08-14T09:22:56.136Z,23.23
2018-08-14T09:23:56.129Z,23.43
2018-08-14T09:24:56.103Z,23.79
2018-08-14T09:25:56.087Z,23.78
2018-08-14T09:26:56.070Z,23.97
2018-08-14T09:27:56.054Z,24.18
2018-08-14T09:28:56.039Z,24.57
2018-08-14T09:29:56.031Z,24.76
2018-08-14T09:30:56.008Z,24.10
2018-08-14T09:31:55.990Z,23.75
2018-08-14T09:32:55.977Z,23.53
2018-08-14T09:33:55.959Z,23.23
2018-08-14T09:34:55.945Z,23.13
2018-08-14T09:35:55.929Z,22.88
2018-08-14T09:36:55.959Z,22.76
2018-08-14T09:37:55.899Z,22.60
2018-08-14T09:38:55.881Z,22.73
2018-08-14T09:39:55.867Z,22.83
2018-08-14T09:40:55.855Z,22.92
2018-08-14T09:41:55.836Z,22.68
2018-08-14T09:42:55.818Z,22.60
2018-08-14T09:43:55.802Z,22.54
2018-08-14T09:44:55.787Z,22.39
2018-08-14T09:45:55.772Z,22.42
2018-08-14T09:46:55.760Z,22.36
2018-08-14T09:47:55.741Z,22.22
2018-08-14T09:48:55.723Z,22.02
2018-08-14T09:49:55.705Z,21.90
2018-08-14T09:50:55.691Z,21.96
2018-08-14T09:51:55.673Z,21.98
2018-08-14T09:52:55.656Z,21.88
2018-08-14T09:53:55.658Z,22.05
2018-08-14T09:54:55.625Z,22.28
2018-08-14T09:55:55.608Z,22.20
2018-08-14T09:56:55.609Z,22.03
2018-08-14T09:57:55.575Z,21.88
2018-08-14T09:58:55.558Z,21.94
2018-08-14T09:59:55.542Z,21.99
2018-08-14T10:00:55.525Z,21.88
2018-08-14T10:01:55.507Z,21.82
2018-08-14T10:02:55.492Z,21.65
2018-08-14T10:03:55.475Z,21.50
2018-08-14T10:04:55.458Z,21.24
2018-08-14T10:05:55.440Z,21.17
2018-08-14T10:06:55.432Z,20.97
2018-08-14T10:07:55.407Z,21.06
2018-08-14T10:08:55.403Z,20.94
2018-08-14T10:09:55.375Z,20.95
2018-08-14T10:10:55.356Z,20.89
2018-08-14T10:11:55.341Z,20.88
2018-08-14T10:12:55.325Z,20.88
2018-08-14T10:13:55.308Z,20.92
2018-08-14T10:14:55.292Z,21.01
2018-08-14T10:15:55.273Z,21.13
2018-08-14T10:16:55.256Z,21.29
2018-08-14T10:17:55.239Z,21.46
2018-08-14T10:18:55.222Z,21.65
2018-08-14T10:19:55.231Z,21.58
2018-08-14T10:20:55.242Z,21.71
2018-08-14T10:21:55.170Z,21.71
2018-08-14T10:22:55.153Z,22.07
2018-08-14T10:23:55.137Z,22.30
2018-08-14T10:24:55.120Z,22.67
2018-08-14T10:25:55.101Z,22.68
2018-08-14T10:26:55.088Z,23.00
2018-08-14T10:27:55.077Z,23.51
2018-08-14T10:28:55.149Z,23.75
2018-08-14T10:29:55.037Z,24.60
2018-08-14T10:30:55.021Z,25.76
2018-08-14T10:31:55.005Z,25.64
2018-08-14T10:32:54.990Z,25.57
2018-08-14T10:33:54.972Z,25.77
2018-08-14T10:34:54.974Z,27.00
2018-08-14T10:35:54.942Z,27.87
2018-08-14T10:36:54.928Z,27.97
2018-08-14T10:37:54.912Z,28.12
2018-08-14T10:38:54.899Z,28.21
2018-08-14T10:39:54.909Z,27.99
2018-08-14T10:40:54.868Z,28.29
2018-08-14T10:41:54.855Z,28.89
2018-08-14T10:42:54.841Z,28.80
2018-08-14T10:43:54.828Z,28.25
2018-08-14T10:44:54.813Z,28.59
2018-08-14T10:45:54.800Z,29.46
2018-08-14T10:46:54.787Z,29.48
2018-08-14T10:47:54.774Z,29.18
2018-08-14T10:48:54.761Z,28.03
2018-08-14T10:49:54.747Z,27.39
2018-08-14T10:50:54.739Z,26.97
2018-08-14T10:51:54.723Z,26.70
2018-08-14T10:52:54.710Z,26.81
2018-08-14T10:53:54.696Z,27.19
2018-08-14T10:54:54.686Z,27.17
2018-08-14T10:55:54.674Z,27.79
2018-08-14T10:56:54.660Z,28.61
2018-08-14T10:57:54.720Z,29.36
2018-08-14T10:58:54.650Z,29.61
2018-08-14T10:59:54.652Z,30.10
2018-08-14T11:00:54.610Z,30.46
2018-08-14T11:01:54.601Z,29.97
2018-08-14T11:02:54.586Z,30.46
2018-08-14T11:03:54.574Z,30.70
2018-08-14T11:04:54.696Z,30.79
2018-08-14T11:05:54.549Z,30.51
2018-08-14T11:06:54.534Z,31.23
2018-08-14T11:07:54.523Z,31.69
2018-08-14T11:08:54.512Z,31.47
2018-08-14T11:09:54.500Z,31.20
2018-08-14T11:10:54.491Z,30.11
2018-08-14T11:11:54.476Z,29.23
2018-08-14T11:12:54.465Z,28.33
2018-08-14T11:13:54.455Z,27.78
2018-08-14T11:14:54.446Z,27.13
2018-08-14T11:15:54.432Z,26.89
2018-08-14T11:16:54.425Z,26.09
2018-08-14T11:17:54.406Z,25.88
2018-08-14T11:18:54.398Z,25.79
2018-08-14T11:19:54.383Z,26.50
2018-08-14T11:20:54.372Z,27.93
2018-08-14T11:21:54.358Z,27.93
2018-08-14T11:22:54.349Z,28.36
2018-08-14T11:23:54.335Z,29.02
2018-08-14T11:24:54.420Z,28.54
2018-08-14T11:25:54.310Z,28.31
2018-08-14T11:26:54.299Z,27.46
2018-08-14T11:27:54.285Z,27.32
2018-08-14T11:28:54.276Z,28.30
2018-08-14T11:29:54.263Z,28.96
2018-08-14T11:30:54.250Z,28.61
2018-08-14T11:31:54.239Z,27.82
2018-08-14T11:32:54.226Z,27.19
2018-08-14T11:33:54.212Z,27.81
2018-08-14T11:34:54.202Z,27.50
2018-08-14T11:35:54.199Z,26.67
2018-08-14T11:36:54.186Z,25.98
2018-08-14T11:37:54.165Z,25.47
2018-08-14T11:38:54.153Z,25.15
2018-08-14T11:39:54.163Z,24.98
2018-08-14T11:40:54.127Z,24.91
2018-08-14T11:41:54.115Z,24.65
2018-08-14T11:42:54.101Z,24.67
2018-08-14T11:43:54.091Z,24.60
2018-08-14T11:44:54.076Z,24.64
2018-08-14T11:45:54.062Z,24.77
2018-08-14T11:46:54.050Z,24.78
2018-08-14T11:47:54.035Z,26.23
2018-08-14T11:48:54.027Z,27.22
2018-08-14T11:49:54.009Z,28.02
2018-08-14T11:50:54.020Z,28.51
2018-08-14T11:51:53.983Z,29.16
2018-08-14T11:52:53.974Z,29.52
2018-08-14T11:53:53.957Z,29.63
2018-08-14T11:54:53.946Z,29.04
2018-08-14T11:55:53.932Z,28.68
2018-08-14T11:56:53.920Z,27.82
2018-08-14T11:57:53.906Z,28.25
2018-08-14T11:58:53.896Z,28.44
2018-08-14T11:59:53.883Z,27.94
2018-08-14T12:00:53.871Z,28.67
2018-08-14T12:01:53.866Z,28.48
2018-08-14T12:02:53.845Z,28.19
2018-08-14T12:03:53.833Z,27.99
2018-08-14T12:04:53.821Z,27.10
2018-08-14T12:05:53.808Z,26.33
2018-08-14T12:06:53.811Z,25.98
2018-08-14T12:07:53.783Z,27.21
2018-08-14T12:08:53.772Z,28.74
2018-08-14T12:09:53.759Z,29.76
2018-08-14T12:10:53.774Z,30.20
2018-08-14T12:11:53.733Z,30.94
2018-08-14T12:12:53.773Z,31.56
2018-08-14T12:13:53.708Z,32.14
2018-08-14T12:14:53.702Z,32.38
2018-08-14T12:15:53.709Z,32.75
2018-08-14T12:16:53.675Z,32.56
2018-08-14T12:17:53.662Z,32.51
2018-08-14T12:18:53.650Z,32.14
2018-08-14T12:19:53.638Z,30.79
2018-08-14T12:20:53.628Z,29.85
2018-08-14T12:21:53.616Z,29.57
2018-08-14T12:22:53.605Z,29.34
2018-08-14T12:23:53.593Z,28.36
2018-08-14T12:24:53.581Z,28.18
2018-08-14T12:25:53.571Z,28.07
2018-08-14T12:26:53.560Z,28.24
2018-08-14T12:27:53.550Z,28.21
2018-08-14T12:28:53.535Z,28.03
2018-08-14T12:29:53.522Z,27.78
2018-08-14T12:30:53.510Z,27.13
2018-08-14T12:31:53.499Z,26.44
2018-08-14T12:32:53.488Z,26.33
2018-08-14T12:33:53.475Z,26.09
2018-08-14T12:34:53.518Z,26.44
2018-08-14T12:35:53.469Z,26.58
2018-08-14T12:36:53.437Z,26.72
2018-08-14T12:37:53.424Z,26.82
2018-08-14T12:38:53.412Z,27.17
2018-08-14T12:39:53.399Z,27.14
2018-08-14T12:40:53.386Z,27.36
2018-08-14T12:41:53.400Z,27.37
2018-08-14T12:42:53.360Z,27.37
2018-08-14T12:43:53.349Z,26.99
2018-08-14T12:44:53.336Z,27.12
2018-08-14T12:45:53.321Z,26.95
2018-08-14T12:46:53.309Z,26.57
2018-08-14T12:47:53.301Z,26.36
2018-08-14T12:48:53.283Z,26.32
2018-08-14T12:49:53.359Z,26.28
2018-08-14T12:50:53.259Z,26.20
2018-08-14T12:51:53.246Z,26.13